sensor_id;sensor_type;location;lat;lon;timestamp;P1;durP1;ratioP1;P2;durP2;ratioP2
54555;SDS011;57291;37.520;15.106;2022-09-21T00:01:17;6.43;;;2.70;;
54555;SDS011;57291;37.520;15.106;2022-09-21T00:03:47;6.30;;;3.03;;
54555;SDS011;57291;37.520;15.106;2022-09-21T00:06:18;8.23;;;3.00;;
54555;SDS011;57291;37.520;15.106;2022-09-21T00:08:47;5.85;;;3.05;;
54555;SDS011;57291;37.520;15.106;2022-09-21T00:11:21;6.15;;;3.00;;
54555;SDS011;57291;37.520;15.106;2022-09-21T00:13:55;8.35;;;3.13;;
54555;SDS011;57291;37.520;15.106;2022-09-21T00:16:25;8.13;;;3.33;;
54555;SDS011;57291;37.520;15.106;2022-09-21T00:18:53;4.75;;;2.65;;
54555;SDS011;57291;37.520;15.106;2022-09-21T00:21:22;7.60;;;3.08;;
54555;SDS011;57291;37.520;15.106;2022-09-21T00:23:51;8.60;;;2.90;;
54555;SDS011;57291;37.520;15.106;2022-09-21T00:26:20;5.18;;;2.47;;
54555;SDS011;57291;37.520;15.106;2022-09-21T00:28:55;9.48;;;2.40;;
54555;SDS011;57291;37.520;15.106;2022-09-21T00:31:24;7.82;;;2.53;;
54555;SDS011;57291;37.520;15.106;2022-09-21T00:33:53;9.55;;;2.70;;
54555;SDS011;57291;37.520;15.106;2022-09-21T00:36:21;8.80;;;2.50;;
54555;SDS011;57291;37.520;15.106;2022-09-21T00:38:54;6.53;;;2.85;;
54555;SDS011;57291;37.520;15.106;2022-09-21T00:41:23;10.52;;;2.92;;
54555;SDS011;57291;37.520;15.106;2022-09-21T00:44:18;6.53;;;2.70;;
54555;SDS011;57291;37.520;15.106;2022-09-21T00:46:52;9.23;;;2.90;;
54555;SDS011;57291;37.520;15.106;2022-09-21T00:49:25;8.27;;;2.95;;
54555;SDS011;57291;37.520;15.106;2022-09-21T00:51:58;9.15;;;3.20;;
54555;SDS011;57291;37.520;15.106;2022-09-21T00:54:40;5.28;;;2.50;;
54555;SDS011;57291;37.520;15.106;2022-09-21T00:57:13;6.93;;;2.80;;
54555;SDS011;57291;37.520;15.106;2022-09-21T00:59:43;7.05;;;2.70;;
54555;SDS011;57291;37.520;15.106;2022-09-21T01:02:11;6.80;;;2.45;;
54555;SDS011;57291;37.520;15.106;2022-09-21T01:04:41;5.25;;;2.60;;
54555;SDS011;57291;37.520;15.106;2022-09-21T01:07:10;6.47;;;2.75;;
54555;SDS011;57291;37.520;15.106;2022-09-21T01:09:45;6.80;;;2.70;;
54555;SDS011;57291;37.520;15.106;2022-09-21T01:18:43;6.53;;;2.70;;
54555;SDS011;57291;37.520;15.106;2022-09-21T01:21:19;6.13;;;2.75;;
54555;SDS011;57291;37.520;15.106;2022-09-21T01:32:13;9.82;;;2.75;;
54555;SDS011;57291;37.520;15.106;2022-09-21T01:35:09;10.63;;;2.60;;
54555;SDS011;57291;37.520;15.106;2022-09-21T01:37:45;7.63;;;2.40;;
54555;SDS011;57291;37.520;15.106;2022-09-21T01:40:19;10.25;;;2.95;;
54555;SDS011;57291;37.520;15.106;2022-09-21T01:42:51;9.18;;;2.60;;
54555;SDS011;57291;37.520;15.106;2022-09-21T01:45:40;6.45;;;2.53;;
54555;SDS011;57291;37.520;15.106;2022-09-21T01:48:13;7.18;;;2.60;;
54555;SDS011;57291;37.520;15.106;2022-09-21T01:50:44;8.52;;;2.80;;
54555;SDS011;57291;37.520;15.106;2022-09-21T01:55:54;8.52;;;3.00;;
54555;SDS011;57291;37.520;15.106;2022-09-21T01:58:29;4.88;;;2.30;;
54555;SDS011;57291;37.520;15.106;2022-09-21T02:01:01;5.25;;;2.60;;
54555;SDS011;57291;37.520;15.106;2022-09-21T02:03:48;6.90;;;2.75;;
54555;SDS011;57291;37.520;15.106;2022-09-21T02:06:26;6.25;;;2.60;;
54555;SDS011;57291;37.520;15.106;2022-09-21T02:08:56;9.00;;;2.53;;
54555;SDS011;57291;37.520;15.106;2022-09-21T02:11:24;9.48;;;2.78;;
54555;SDS011;57291;37.520;15.106;2022-09-21T02:13:52;7.88;;;2.75;;
54555;SDS011;57291;37.520;15.106;2022-09-21T02:19:18;5.85;;;2.65;;
54555;SDS011;57291;37.520;15.106;2022-09-21T02:22:14;5.63;;;2.65;;
54555;SDS011;57291;37.520;15.106;2022-09-21T02:24:56;8.52;;;2.60;;
54555;SDS011;57291;37.520;15.106;2022-09-21T02:30:52;7.90;;;2.85;;
54555;SDS011;57291;37.520;15.106;2022-09-21T02:33:29;7.53;;;2.80;;
54555;SDS011;57291;37.520;15.106;2022-09-21T02:36:08;10.35;;;2.78;;
54555;SDS011;57291;37.520;15.106;2022-09-21T02:38:48;4.18;;;2.28;;
54555;SDS011;57291;37.520;15.106;2022-09-21T02:41:30;5.00;;;2.65;;
54555;SDS011;57291;37.520;15.106;2022-09-21T02:44:05;5.03;;;2.25;;
54555;SDS011;57291;37.520;15.106;2022-09-21T02:49:40;9.07;;;2.90;;
54555;SDS011;57291;37.520;15.106;2022-09-21T02:52:12;8.02;;;2.72;;
54555;SDS011;57291;37.520;15.106;2022-09-21T02:54:42;6.18;;;2.80;;
54555;SDS011;57291;37.520;15.106;2022-09-21T02:57:14;4.38;;;2.47;;
54555;SDS011;57291;37.520;15.106;2022-09-21T02:59:44;10.00;;;3.50;;
54555;SDS011;57291;37.520;15.106;2022-09-21T03:02:11;7.50;;;3.15;;
54555;SDS011;57291;37.520;15.106;2022-09-21T03:04:39;7.90;;;3.10;;
54555;SDS011;57291;37.520;15.106;2022-09-21T03:07:08;11.95;;;3.47;;
54555;SDS011;57291;37.520;15.106;2022-09-21T03:09:35;10.30;;;4.03;;
54555;SDS011;57291;37.520;15.106;2022-09-21T03:12:02;7.35;;;3.20;;
54555;SDS011;57291;37.520;15.106;2022-09-21T03:14:30;7.65;;;3.17;;
54555;SDS011;57291;37.520;15.106;2022-09-21T03:17:01;9.85;;;3.88;;
54555;SDS011;57291;37.520;15.106;2022-09-21T03:19:28;7.40;;;3.15;;
54555;SDS011;57291;37.520;15.106;2022-09-21T03:21:55;8.23;;;3.20;;
54555;SDS011;57291;37.520;15.106;2022-09-21T03:24:22;10.68;;;3.72;;
54555;SDS011;57291;37.520;15.106;2022-09-21T03:27:08;9.15;;;3.70;;
54555;SDS011;57291;37.520;15.106;2022-09-21T03:29:35;10.10;;;3.70;;
54555;SDS011;57291;37.520;15.106;2022-09-21T03:32:02;9.73;;;4.10;;
54555;SDS011;57291;37.520;15.106;2022-09-21T03:34:30;9.10;;;4.50;;
54555;SDS011;57291;37.520;15.106;2022-09-21T03:37:00;12.48;;;5.07;;
54555;SDS011;57291;37.520;15.106;2022-09-21T03:39:29;10.68;;;5.57;;
54555;SDS011;57291;37.520;15.106;2022-09-21T03:41:56;11.38;;;5.53;;
54555;SDS011;57291;37.520;15.106;2022-09-21T03:44:24;11.82;;;4.85;;
54555;SDS011;57291;37.520;15.106;2022-09-21T03:46:52;12.35;;;5.35;;
54555;SDS011;57291;37.520;15.106;2022-09-21T03:49:19;12.82;;;5.82;;
54555;SDS011;57291;37.520;15.106;2022-09-21T03:51:47;15.23;;;6.95;;
54555;SDS011;57291;37.520;15.106;2022-09-21T03:54:15;18.45;;;7.03;;
54555;SDS011;57291;37.520;15.106;2022-09-21T03:56:42;13.63;;;6.78;;
54555;SDS011;57291;37.520;15.106;2022-09-21T03:59:10;18.92;;;6.65;;
54555;SDS011;57291;37.520;15.106;2022-09-21T04:01:40;16.63;;;6.25;;
54555;SDS011;57291;37.520;15.106;2022-09-21T04:04:08;15.18;;;7.72;;
54555;SDS011;57291;37.520;15.106;2022-09-21T04:06:35;20.63;;;7.03;;
54555;SDS011;57291;37.520;15.106;2022-09-21T04:09:03;14.20;;;6.20;;
54555;SDS011;57291;37.520;15.106;2022-09-21T04:11:30;13.43;;;6.65;;
54555;SDS011;57291;37.520;15.106;2022-09-21T04:13:58;16.92;;;6.55;;
54555;SDS011;57291;37.520;15.106;2022-09-21T04:16:26;16.45;;;6.97;;
54555;SDS011;57291;37.520;15.106;2022-09-21T04:18:54;14.05;;;6.72;;
54555;SDS011;57291;37.520;15.106;2022-09-21T04:21:21;14.23;;;7.03;;
54555;SDS011;57291;37.520;15.106;2022-09-21T04:23:48;13.20;;;6.68;;
54555;SDS011;57291;37.520;15.106;2022-09-21T04:26:23;16.15;;;7.00;;
54555;SDS011;57291;37.520;15.106;2022-09-21T04:28:53;19.27;;;7.20;;
54555;SDS011;57291;37.520;15.106;2022-09-21T04:31:21;16.90;;;7.40;;
54555;SDS011;57291;37.520;15.106;2022-09-21T04:33:50;14.65;;;7.25;;
54555;SDS011;57291;37.520;15.106;2022-09-21T04:36:18;14.60;;;7.65;;
54555;SDS011;57291;37.520;15.106;2022-09-21T04:38:47;15.00;;;6.90;;
54555;SDS011;57291;37.520;15.106;2022-09-21T04:41:14;16.67;;;7.95;;
54555;SDS011;57291;37.520;15.106;2022-09-21T04:43:43;14.18;;;6.50;;
54555;SDS011;57291;37.520;15.106;2022-09-21T04:46:12;16.52;;;7.10;;
54555;SDS011;57291;37.520;15.106;2022-09-21T04:48:44;13.75;;;6.50;;
54555;SDS011;57291;37.520;15.106;2022-09-21T04:51:12;9.93;;;5.85;;
54555;SDS011;57291;37.520;15.106;2022-09-21T04:53:41;12.10;;;6.07;;
54555;SDS011;57291;37.520;15.106;2022-09-21T04:56:12;12.80;;;6.53;;
54555;SDS011;57291;37.520;15.106;2022-09-21T04:58:40;11.15;;;6.28;;
54555;SDS011;57291;37.520;15.106;2022-09-21T05:01:08;11.82;;;6.95;;
54555;SDS011;57291;37.520;15.106;2022-09-21T05:03:35;13.15;;;6.72;;
54555;SDS011;57291;37.520;15.106;2022-09-21T05:06:03;14.07;;;6.80;;
54555;SDS011;57291;37.520;15.106;2022-09-21T05:08:30;12.02;;;6.82;;
54555;SDS011;57291;37.520;15.106;2022-09-21T05:11:16;12.35;;;6.80;;
54555;SDS011;57291;37.520;15.106;2022-09-21T05:13:44;10.55;;;6.57;;
54555;SDS011;57291;37.520;15.106;2022-09-21T05:16:13;13.95;;;6.88;;
54555;SDS011;57291;37.520;15.106;2022-09-21T05:18:41;14.60;;;7.80;;
54555;SDS011;57291;37.520;15.106;2022-09-21T05:21:08;11.60;;;6.93;;
54555;SDS011;57291;37.520;15.106;2022-09-21T05:23:38;13.35;;;6.72;;
54555;SDS011;57291;37.520;15.106;2022-09-21T05:26:05;11.90;;;6.65;;
54555;SDS011;57291;37.520;15.106;2022-09-21T05:28:33;10.50;;;6.10;;
54555;SDS011;57291;37.520;15.106;2022-09-21T05:33:56;10.75;;;6.38;;
54555;SDS011;57291;37.520;15.106;2022-09-21T05:36:48;11.40;;;5.90;;
54555;SDS011;57291;37.520;15.106;2022-09-21T05:39:18;10.85;;;5.70;;
54555;SDS011;57291;37.520;15.106;2022-09-21T05:41:46;9.82;;;5.78;;
54555;SDS011;57291;37.520;15.106;2022-09-21T05:44:14;11.60;;;5.60;;
54555;SDS011;57291;37.520;15.106;2022-09-21T05:46:41;10.50;;;5.57;;
54555;SDS011;57291;37.520;15.106;2022-09-21T05:49:25;10.95;;;5.53;;
54555;SDS011;57291;37.520;15.106;2022-09-21T06:05:45;12.82;;;6.10;;
54555;SDS011;57291;37.520;15.106;2022-09-21T06:08:12;13.40;;;6.22;;
54555;SDS011;57291;37.520;15.106;2022-09-21T06:10:39;14.50;;;6.45;;
54555;SDS011;57291;37.520;15.106;2022-09-21T06:13:07;11.98;;;5.93;;
54555;SDS011;57291;37.520;15.106;2022-09-21T06:15:34;8.05;;;5.05;;
54555;SDS011;57291;37.520;15.106;2022-09-21T06:18:04;8.77;;;4.38;;
54555;SDS011;57291;37.520;15.106;2022-09-21T06:20:32;8.77;;;3.58;;
54555;SDS011;57291;37.520;15.106;2022-09-21T06:23:03;11.57;;;3.45;;
54555;SDS011;57291;37.520;15.106;2022-09-21T06:25:32;9.02;;;3.42;;
54555;SDS011;57291;37.520;15.106;2022-09-21T06:28:03;5.65;;;3.03;;
54555;SDS011;57291;37.520;15.106;2022-09-21T06:30:32;5.32;;;2.90;;
54555;SDS011;57291;37.520;15.106;2022-09-21T06:33:03;8.05;;;2.90;;
54555;SDS011;57291;37.520;15.106;2022-09-21T06:35:32;6.60;;;2.53;;
54555;SDS011;57291;37.520;15.106;2022-09-21T06:38:05;6.13;;;2.88;;
54555;SDS011;57291;37.520;15.106;2022-09-21T06:40:34;10.30;;;3.00;;
54555;SDS011;57291;37.520;15.106;2022-09-21T06:43:03;5.43;;;2.60;;
54555;SDS011;57291;37.520;15.106;2022-09-21T06:45:31;5.15;;;2.15;;
54555;SDS011;57291;37.520;15.106;2022-09-21T06:47:58;4.68;;;1.63;;
54555;SDS011;57291;37.520;15.106;2022-09-21T06:50:26;3.10;;;1.70;;
54555;SDS011;57291;37.520;15.106;2022-09-21T06:52:53;5.03;;;1.83;;
54555;SDS011;57291;37.520;15.106;2022-09-21T06:55:20;4.72;;;2.20;;
54555;SDS011;57291;37.520;15.106;2022-09-21T06:57:47;6.45;;;2.40;;
54555;SDS011;57291;37.520;15.106;2022-09-21T07:00:16;7.07;;;2.50;;
54555;SDS011;57291;37.520;15.106;2022-09-21T07:02:43;10.50;;;3.22;;
54555;SDS011;57291;37.520;15.106;2022-09-21T07:05:11;11.20;;;2.67;;
54555;SDS011;57291;37.520;15.106;2022-09-21T07:07:39;14.10;;;3.60;;
54555;SDS011;57291;37.520;15.106;2022-09-21T07:10:06;13.27;;;3.63;;
54555;SDS011;57291;37.520;15.106;2022-09-21T07:12:41;12.10;;;3.35;;
54555;SDS011;57291;37.520;15.106;2022-09-21T07:15:09;13.57;;;3.40;;
54555;SDS011;57291;37.520;15.106;2022-09-21T07:17:37;14.20;;;3.85;;
54555;SDS011;57291;37.520;15.106;2022-09-21T07:20:05;16.30;;;5.15;;
54555;SDS011;57291;37.520;15.106;2022-09-21T07:22:34;14.35;;;4.38;;
54555;SDS011;57291;37.520;15.106;2022-09-21T07:25:02;15.23;;;4.18;;
54555;SDS011;57291;37.520;15.106;2022-09-21T07:27:31;33.75;;;5.35;;
54555;SDS011;57291;37.520;15.106;2022-09-21T07:29:59;28.73;;;4.00;;
54555;SDS011;57291;37.520;15.106;2022-09-21T07:32:26;16.90;;;3.58;;
54555;SDS011;57291;37.520;15.106;2022-09-21T07:34:53;26.83;;;4.40;;
54555;SDS011;57291;37.520;15.106;2022-09-21T07:37:23;25.27;;;4.15;;
54555;SDS011;57291;37.520;15.106;2022-09-21T07:39:51;22.52;;;4.47;;
54555;SDS011;57291;37.520;15.106;2022-09-21T07:42:19;16.85;;;3.15;;
54555;SDS011;57291;37.520;15.106;2022-09-21T07:44:48;17.58;;;3.97;;
54555;SDS011;57291;37.520;15.106;2022-09-21T07:47:18;20.42;;;3.08;;
54555;SDS011;57291;37.520;15.106;2022-09-21T07:49:45;24.48;;;3.88;;
54555;SDS011;57291;37.520;15.106;2022-09-21T07:52:13;26.13;;;4.90;;
54555;SDS011;57291;37.520;15.106;2022-09-21T07:54:41;24.92;;;4.45;;
54555;SDS011;57291;37.520;15.106;2022-09-21T07:57:08;24.15;;;4.10;;
54555;SDS011;57291;37.520;15.106;2022-09-21T07:59:54;27.95;;;3.85;;
54555;SDS011;57291;37.520;15.106;2022-09-21T08:02:24;29.75;;;4.35;;
54555;SDS011;57291;37.520;15.106;2022-09-21T08:04:52;29.75;;;3.88;;
54555;SDS011;57291;37.520;15.106;2022-09-21T08:07:19;19.17;;;3.20;;
54555;SDS011;57291;37.520;15.106;2022-09-21T08:09:46;22.25;;;3.85;;
54555;SDS011;57291;37.520;15.106;2022-09-21T08:12:15;19.10;;;4.13;;
54555;SDS011;57291;37.520;15.106;2022-09-21T08:14:46;15.65;;;3.53;;
54555;SDS011;57291;37.520;15.106;2022-09-21T08:17:13;18.55;;;3.92;;
54555;SDS011;57291;37.520;15.106;2022-09-21T08:19:41;23.33;;;4.97;;
54555;SDS011;57291;37.520;15.106;2022-09-21T08:22:08;19.65;;;3.60;;
54555;SDS011;57291;37.520;15.106;2022-09-21T08:24:37;19.25;;;3.67;;
54555;SDS011;57291;37.520;15.106;2022-09-21T08:27:04;18.15;;;3.33;;
54555;SDS011;57291;37.520;15.106;2022-09-21T08:29:31;25.13;;;3.55;;
54555;SDS011;57291;37.520;15.106;2022-09-21T08:31:59;14.25;;;2.45;;
54555;SDS011;57291;37.520;15.106;2022-09-21T08:34:26;11.85;;;2.72;;
54555;SDS011;57291;37.520;15.106;2022-09-21T08:36:54;16.98;;;2.50;;
54555;SDS011;57291;37.520;15.106;2022-09-21T08:39:21;21.23;;;3.00;;
54555;SDS011;57291;37.520;15.106;2022-09-21T08:44:42;14.82;;;2.10;;
54555;SDS011;57291;37.520;15.106;2022-09-21T08:47:32;11.13;;;2.28;;
54555;SDS011;57291;37.520;15.106;2022-09-21T08:50:15;17.90;;;2.72;;
54555;SDS011;57291;37.520;15.106;2022-09-21T08:52:53;8.85;;;2.47;;
54555;SDS011;57291;37.520;15.106;2022-09-21T08:55:26;16.23;;;2.33;;
54555;SDS011;57291;37.520;15.106;2022-09-21T08:57:53;9.45;;;2.55;;
54555;SDS011;57291;37.520;15.106;2022-09-21T09:00:21;10.02;;;2.63;;
54555;SDS011;57291;37.520;15.106;2022-09-21T09:11:36;7.43;;;1.67;;
54555;SDS011;57291;37.520;15.106;2022-09-21T09:17:23;14.23;;;3.10;;
54555;SDS011;57291;37.520;15.106;2022-09-21T09:22:45;14.77;;;2.60;;
54555;SDS011;57291;37.520;15.106;2022-09-21T09:25:21;12.85;;;2.17;;
54555;SDS011;57291;37.520;15.106;2022-09-21T09:27:53;16.20;;;2.75;;
54555;SDS011;57291;37.520;15.106;2022-09-21T09:30:25;11.75;;;3.45;;
54555;SDS011;57291;37.520;15.106;2022-09-21T09:35:39;18.42;;;2.78;;
54555;SDS011;57291;37.520;15.106;2022-09-21T09:38:22;13.70;;;2.70;;
54555;SDS011;57291;37.520;15.106;2022-09-21T09:48:48;14.00;;;2.20;;
54555;SDS011;57291;37.520;15.106;2022-09-21T09:51:28;21.80;;;2.92;;
54555;SDS011;57291;37.520;15.106;2022-09-21T09:53:57;17.00;;;2.38;;
54555;SDS011;57291;37.520;15.106;2022-09-21T09:56:26;11.10;;;2.03;;
54555;SDS011;57291;37.520;15.106;2022-09-21T09:59:01;18.10;;;2.42;;
54555;SDS011;57291;37.520;15.106;2022-09-21T10:04:16;7.97;;;2.10;;
54555;SDS011;57291;37.520;15.106;2022-09-21T10:06:43;15.52;;;2.65;;
54555;SDS011;57291;37.520;15.106;2022-09-21T10:09:19;15.77;;;2.70;;
54555;SDS011;57291;37.520;15.106;2022-09-21T10:11:51;12.75;;;2.08;;
54555;SDS011;57291;37.520;15.106;2022-09-21T10:14:21;9.00;;;2.28;;
54555;SDS011;57291;37.520;15.106;2022-09-21T10:16:51;10.65;;;2.45;;
54555;SDS011;57291;37.520;15.106;2022-09-21T10:19:23;9.43;;;2.30;;
54555;SDS011;57291;37.520;15.106;2022-09-21T10:21:59;20.00;;;3.55;;
54555;SDS011;57291;37.520;15.106;2022-09-21T10:24:30;15.20;;;3.72;;
54555;SDS011;57291;37.520;15.106;2022-09-21T10:29:41;16.33;;;2.67;;
54555;SDS011;57291;37.520;15.106;2022-09-21T10:34:40;15.57;;;2.17;;
54555;SDS011;57291;37.520;15.106;2022-09-21T10:37:29;13.88;;;1.95;;
54555;SDS011;57291;37.520;15.106;2022-09-21T10:40:03;16.20;;;2.10;;
54555;SDS011;57291;37.520;15.106;2022-09-21T10:42:48;8.88;;;2.75;;
54555;SDS011;57291;37.520;15.106;2022-09-21T10:45:25;12.75;;;2.22;;
54555;SDS011;57291;37.520;15.106;2022-09-21T10:50:38;11.73;;;1.95;;
54555;SDS011;57291;37.520;15.106;2022-09-21T10:55:38;9.40;;;1.70;;
54555;SDS011;57291;37.520;15.106;2022-09-21T10:58:23;10.48;;;2.45;;
54555;SDS011;57291;37.520;15.106;2022-09-21T11:00:52;12.68;;;2.17;;
54555;SDS011;57291;37.520;15.106;2022-09-21T11:03:30;12.13;;;1.92;;
54555;SDS011;57291;37.520;15.106;2022-09-21T11:06:10;6.97;;;1.60;;
54555;SDS011;57291;37.520;15.106;2022-09-21T11:08:57;9.30;;;1.60;;
54555;SDS011;57291;37.520;15.106;2022-09-21T11:17:19;18.75;;;2.50;;
54555;SDS011;57291;37.520;15.106;2022-09-21T11:20:08;17.98;;;3.00;;
54555;SDS011;57291;37.520;15.106;2022-09-21T11:25:25;18.52;;;1.77;;
54555;SDS011;57291;37.520;15.106;2022-09-21T11:28:24;13.88;;;2.35;;
54555;SDS011;57291;37.520;15.106;2022-09-21T11:31:21;7.82;;;1.60;;
54555;SDS011;57291;37.520;15.106;2022-09-21T11:50:39;9.35;;;1.80;;
54555;SDS011;57291;37.520;15.106;2022-09-21T11:53:38;12.90;;;1.90;;
54555;SDS011;57291;37.520;15.106;2022-09-21T12:15:21;13.50;;;2.35;;
54555;SDS011;57291;37.520;15.106;2022-09-21T12:20:41;11.02;;;1.80;;
54555;SDS011;57291;37.520;15.106;2022-09-21T12:23:27;9.95;;;2.30;;
54555;SDS011;57291;37.520;15.106;2022-09-21T12:26:04;11.20;;;2.00;;
54555;SDS011;57291;37.520;15.106;2022-09-21T12:28:35;9.82;;;2.47;;
54555;SDS011;57291;37.520;15.106;2022-09-21T12:31:34;10.93;;;2.13;;
54555;SDS011;57291;37.520;15.106;2022-09-21T12:34:17;6.63;;;1.45;;
54555;SDS011;57291;37.520;15.106;2022-09-21T12:36:59;10.13;;;1.65;;
54555;SDS011;57291;37.520;15.106;2022-09-21T12:39:38;11.88;;;1.58;;
54555;SDS011;57291;37.520;15.106;2022-09-21T12:45:02;12.95;;;2.40;;
54555;SDS011;57291;37.520;15.106;2022-09-21T12:50:37;5.78;;;1.40;;
54555;SDS011;57291;37.520;15.106;2022-09-21T12:53:14;7.03;;;1.77;;
54555;SDS011;57291;37.520;15.106;2022-09-21T13:01:20;10.38;;;1.50;;
54555;SDS011;57291;37.520;15.106;2022-09-21T13:04:09;7.40;;;1.77;;
54555;SDS011;57291;37.520;15.106;2022-09-21T13:09:28;12.63;;;2.10;;
54555;SDS011;57291;37.520;15.106;2022-09-21T13:11:58;10.45;;;1.75;;
54555;SDS011;57291;37.520;15.106;2022-09-21T13:14:30;6.40;;;1.50;;
54555;SDS011;57291;37.520;15.106;2022-09-21T13:17:02;6.00;;;1.50;;
54555;SDS011;57291;37.520;15.106;2022-09-21T13:19:32;6.53;;;1.25;;
54555;SDS011;57291;37.520;15.106;2022-09-21T13:24:58;6.20;;;1.63;;
54555;SDS011;57291;37.520;15.106;2022-09-21T13:33:36;9.98;;;1.63;;
54555;SDS011;57291;37.520;15.106;2022-09-21T13:39:03;8.35;;;1.65;;
54555;SDS011;57291;37.520;15.106;2022-09-21T13:41:40;8.32;;;2.25;;
54555;SDS011;57291;37.520;15.106;2022-09-21T13:44:41;11.30;;;1.60;;
54555;SDS011;57291;37.520;15.106;2022-09-21T13:47:09;10.18;;;1.48;;
54555;SDS011;57291;37.520;15.106;2022-09-21T13:49:39;8.77;;;1.58;;
54555;SDS011;57291;37.520;15.106;2022-09-21T13:52:37;9.30;;;1.77;;
54555;SDS011;57291;37.520;15.106;2022-09-21T13:55:16;11.23;;;1.88;;
54555;SDS011;57291;37.520;15.106;2022-09-21T13:57:47;10.70;;;1.83;;
54555;SDS011;57291;37.520;15.106;2022-09-21T14:10:49;9.20;;;1.65;;
54555;SDS011;57291;37.520;15.106;2022-09-21T14:13:23;12.52;;;2.28;;
54555;SDS011;57291;37.520;15.106;2022-09-21T14:15:54;10.65;;;2.47;;
54555;SDS011;57291;37.520;15.106;2022-09-21T14:18:41;8.10;;;1.75;;
54555;SDS011;57291;37.520;15.106;2022-09-21T14:21:12;7.85;;;1.88;;
54555;SDS011;57291;37.520;15.106;2022-09-21T14:29:15;6.18;;;1.10;;
54555;SDS011;57291;37.520;15.106;2022-09-21T14:31:46;11.40;;;2.00;;
54555;SDS011;57291;37.520;15.106;2022-09-21T14:34:16;13.07;;;2.00;;
54555;SDS011;57291;37.520;15.106;2022-09-21T14:36:49;8.63;;;1.48;;
54555;SDS011;57291;37.520;15.106;2022-09-21T14:39:31;7.40;;;1.33;;
54555;SDS011;57291;37.520;15.106;2022-09-21T14:42:06;11.65;;;1.55;;
54555;SDS011;57291;37.520;15.106;2022-09-21T14:44:46;2.97;;;1.30;;
54555;SDS011;57291;37.520;15.106;2022-09-21T14:58:25;4.22;;;1.40;;
54555;SDS011;57291;37.520;15.106;2022-09-21T15:13:19;8.32;;;1.50;;
54555;SDS011;57291;37.520;15.106;2022-09-21T15:15:58;14.43;;;1.88;;
54555;SDS011;57291;37.520;15.106;2022-09-21T15:18:38;8.07;;;2.03;;
54555;SDS011;57291;37.520;15.106;2022-09-21T15:21:24;15.32;;;1.90;;
54555;SDS011;57291;37.520;15.106;2022-09-21T15:23:53;8.48;;;1.92;;
54555;SDS011;57291;37.520;15.106;2022-09-21T15:26:22;8.15;;;1.95;;
54555;SDS011;57291;37.520;15.106;2022-09-21T15:31:36;5.70;;;1.50;;
54555;SDS011;57291;37.520;15.106;2022-09-21T15:34:06;8.02;;;1.95;;
54555;SDS011;57291;37.520;15.106;2022-09-21T15:36:37;7.60;;;1.40;;
54555;SDS011;57291;37.520;15.106;2022-09-21T15:39:05;11.80;;;1.70;;
54555;SDS011;57291;37.520;15.106;2022-09-21T15:44:30;10.23;;;2.00;;
54555;SDS011;57291;37.520;15.106;2022-09-21T15:46:58;6.65;;;1.60;;
54555;SDS011;57291;37.520;15.106;2022-09-21T15:49:28;8.40;;;1.67;;
54555;SDS011;57291;37.520;15.106;2022-09-21T15:54:30;11.05;;;1.40;;
54555;SDS011;57291;37.520;15.106;2022-09-21T15:57:21;8.57;;;1.60;;
54555;SDS011;57291;37.520;15.106;2022-09-21T16:00:04;5.20;;;1.40;;
54555;SDS011;57291;37.520;15.106;2022-09-21T16:02:53;12.38;;;1.85;;
54555;SDS011;57291;37.520;15.106;2022-09-21T16:06:17;12.93;;;1.95;;
54555;SDS011;57291;37.520;15.106;2022-09-21T16:08:32;7.63;;;1.73;;
54555;SDS011;57291;37.520;15.106;2022-09-21T16:11:11;11.50;;;1.83;;
54555;SDS011;57291;37.520;15.106;2022-09-21T16:13:45;14.57;;;2.38;;
54555;SDS011;57291;37.520;15.106;2022-09-21T16:16:31;10.10;;;1.67;;
54555;SDS011;57291;37.520;15.106;2022-09-21T16:18:58;14.82;;;2.03;;
54555;SDS011;57291;37.520;15.106;2022-09-21T16:24:18;9.95;;;1.83;;
54555;SDS011;57291;37.520;15.106;2022-09-21T16:26:59;11.35;;;1.90;;
54555;SDS011;57291;37.520;15.106;2022-09-21T16:29:37;8.43;;;1.58;;
54555;SDS011;57291;37.520;15.106;2022-09-21T16:34:44;8.95;;;2.30;;
54555;SDS011;57291;37.520;15.106;2022-09-21T16:39:54;8.07;;;2.10;;
54555;SDS011;57291;37.520;15.106;2022-09-21T16:42:24;14.23;;;2.00;;
54555;SDS011;57291;37.520;15.106;2022-09-21T16:44:56;8.27;;;2.33;;
54555;SDS011;57291;37.520;15.106;2022-09-21T16:47:25;8.55;;;2.10;;
54555;SDS011;57291;37.520;15.106;2022-09-21T16:49:54;11.00;;;1.90;;
54555;SDS011;57291;37.520;15.106;2022-09-21T16:52:26;9.75;;;2.20;;
54555;SDS011;57291;37.520;15.106;2022-09-21T16:54:55;5.28;;;1.40;;
54555;SDS011;57291;37.520;15.106;2022-09-21T16:57:23;7.53;;;1.60;;
54555;SDS011;57291;37.520;15.106;2022-09-21T16:59:51;9.05;;;1.70;;
54555;SDS011;57291;37.520;15.106;2022-09-21T17:02:18;7.85;;;2.90;;
54555;SDS011;57291;37.520;15.106;2022-09-21T17:04:46;10.40;;;2.70;;
54555;SDS011;57291;37.520;15.106;2022-09-21T17:07:13;8.55;;;3.20;;
54555;SDS011;57291;37.520;15.106;2022-09-21T17:09:43;8.40;;;2.72;;
54555;SDS011;57291;37.520;15.106;2022-09-21T17:12:14;12.13;;;3.63;;
54555;SDS011;57291;37.520;15.106;2022-09-21T17:14:43;6.28;;;2.03;;
54555;SDS011;57291;37.520;15.106;2022-09-21T17:17:22;14.40;;;2.90;;
54555;SDS011;57291;37.520;15.106;2022-09-21T17:19:51;10.68;;;2.38;;
54555;SDS011;57291;37.520;15.106;2022-09-21T17:22:19;6.70;;;2.13;;
54555;SDS011;57291;37.520;15.106;2022-09-21T17:24:48;6.28;;;2.15;;
54555;SDS011;57291;37.520;15.106;2022-09-21T17:27:18;9.00;;;2.78;;
54555;SDS011;57291;37.520;15.106;2022-09-21T17:29:48;5.90;;;2.55;;
54555;SDS011;57291;37.520;15.106;2022-09-21T17:32:17;8.70;;;2.42;;
54555;SDS011;57291;37.520;15.106;2022-09-21T17:37:44;11.77;;;3.22;;
54555;SDS011;57291;37.520;15.106;2022-09-21T17:40:12;6.35;;;2.20;;
54555;SDS011;57291;37.520;15.106;2022-09-21T17:42:40;7.30;;;2.22;;
54555;SDS011;57291;37.520;15.106;2022-09-21T17:45:19;6.22;;;2.15;;
54555;SDS011;57291;37.520;15.106;2022-09-21T17:47:54;10.82;;;1.95;;
54555;SDS011;57291;37.520;15.106;2022-09-21T17:50:23;9.80;;;1.98;;
54555;SDS011;57291;37.520;15.106;2022-09-21T17:52:53;12.00;;;2.17;;
54555;SDS011;57291;37.520;15.106;2022-09-21T17:55:42;6.75;;;1.98;;
54555;SDS011;57291;37.520;15.106;2022-09-21T18:01:27;8.85;;;2.08;;
54555;SDS011;57291;37.520;15.106;2022-09-21T18:04:02;8.27;;;2.10;;
54555;SDS011;57291;37.520;15.106;2022-09-21T18:06:30;9.57;;;1.70;;
54555;SDS011;57291;37.520;15.106;2022-09-21T18:08:59;8.10;;;2.05;;
54555;SDS011;57291;37.520;15.106;2022-09-21T18:14:57;7.43;;;1.70;;
54555;SDS011;57291;37.520;15.106;2022-09-21T18:23:13;9.88;;;1.73;;
54555;SDS011;57291;37.520;15.106;2022-09-21T18:26:18;12.38;;;1.88;;
54555;SDS011;57291;37.520;15.106;2022-09-21T18:28:47;8.38;;;2.35;;
54555;SDS011;57291;37.520;15.106;2022-09-21T18:31:27;8.27;;;1.65;;
54555;SDS011;57291;37.520;15.106;2022-09-21T18:45:26;8.30;;;2.08;;
54555;SDS011;57291;37.520;15.106;2022-09-21T18:53:50;7.22;;;2.08;;
54555;SDS011;57291;37.520;15.106;2022-09-21T18:56:22;5.40;;;1.83;;
54555;SDS011;57291;37.520;15.106;2022-09-21T18:58:49;7.32;;;1.92;;
54555;SDS011;57291;37.520;15.106;2022-09-21T19:01:17;5.30;;;2.13;;
54555;SDS011;57291;37.520;15.106;2022-09-21T19:03:48;7.00;;;1.90;;
54555;SDS011;57291;37.520;15.106;2022-09-21T19:20:51;7.55;;;2.97;;